sensor_id;sensor_type;location;lat;lon;timestamp;P1;durP1;ratioP1;P2;durP2;ratioP2
68989;SDS011;56046;47.270;11.368;2023-07-13T00:01:11;6.00;;;2.40;;
68989;SDS011;56046;47.270;11.368;2023-07-13T00:03:36;5.13;;;2.50;;
68989;SDS011;56046;47.270;11.368;2023-07-13T00:06:01;9.63;;;3.27;;
68989;SDS011;56046;47.270;11.368;2023-07-13T00:08:29;16.33;;;3.28;;
68989;SDS011;56046;47.270;11.368;2023-07-13T00:10:55;11.07;;;3.47;;
68989;SDS011;56046;47.270;11.368;2023-07-13T00:13:20;9.73;;;3.63;;
68989;SDS011;56046;47.270;11.368;2023-07-13T00:15:45;8.37;;;3.90;;
68989;SDS011;56046;47.270;11.368;2023-07-13T00:18:11;8.02;;;3.85;;
68989;SDS011;56046;47.270;11.368;2023-07-13T00:20:36;7.37;;;3.90;;
68989;SDS011;56046;47.270;11.368;2023-07-13T00:23:02;7.73;;;4.20;;
68989;SDS011;56046;47.270;11.368;2023-07-13T00:25:27;6.80;;;3.53;;
68989;SDS011;56046;47.270;11.368;2023-07-13T00:27:55;6.00;;;2.97;;
68989;SDS011;56046;47.270;11.368;2023-07-13T00:30:21;5.87;;;2.37;;
68989;SDS011;56046;47.270;11.368;2023-07-13T00:32:46;5.57;;;2.42;;
68989;SDS011;56046;47.270;11.368;2023-07-13T00:35:13;7.07;;;2.60;;
68989;SDS011;56046;47.270;11.368;2023-07-13T00:37:38;5.32;;;2.40;;
68989;SDS011;56046;47.270;11.368;2023-07-13T00:40:04;4.77;;;2.10;;
68989;SDS011;56046;47.270;11.368;2023-07-13T00:42:30;8.37;;;3.00;;
68989;SDS011;56046;47.270;11.368;2023-07-13T00:47:30;7.33;;;3.67;;
68989;SDS011;56046;47.270;11.368;2023-07-13T00:49:55;5.67;;;3.00;;
68989;SDS011;56046;47.270;11.368;2023-07-13T00:52:20;7.00;;;3.90;;
68989;SDS011;56046;47.270;11.368;2023-07-13T00:54:46;9.60;;;3.77;;
68989;SDS011;56046;47.270;11.368;2023-07-13T00:57:15;8.17;;;3.93;;
68989;SDS011;56046;47.270;11.368;2023-07-13T00:59:43;8.48;;;3.83;;
68989;SDS011;56046;47.270;11.368;2023-07-13T01:02:10;7.72;;;3.50;;
68989;SDS011;56046;47.270;11.368;2023-07-13T01:04:36;7.40;;;3.47;;
68989;SDS011;56046;47.270;11.368;2023-07-13T01:07:01;7.97;;;3.53;;
68989;SDS011;56046;47.270;11.368;2023-07-13T01:09:26;7.18;;;3.63;;
68989;SDS011;56046;47.270;11.368;2023-07-13T01:11:51;7.90;;;3.93;;
68989;SDS011;56046;47.270;11.368;2023-07-13T01:14:17;5.60;;;3.40;;
68989;SDS011;56046;47.270;11.368;2023-07-13T01:16:42;5.97;;;3.53;;
68989;SDS011;56046;47.270;11.368;2023-07-13T01:21:42;4.93;;;2.53;;
68989;SDS011;56046;47.270;11.368;2023-07-13T01:24:08;4.47;;;2.17;;
68989;SDS011;56046;47.270;11.368;2023-07-13T01:26:33;4.43;;;2.08;;
68989;SDS011;56046;47.270;11.368;2023-07-13T01:28:58;6.37;;;2.30;;
68989;SDS011;56046;47.270;11.368;2023-07-13T01:31:24;6.77;;;2.60;;
68989;SDS011;56046;47.270;11.368;2023-07-13T01:33:49;5.30;;;2.27;;
68989;SDS011;56046;47.270;11.368;2023-07-13T01:36:14;4.20;;;1.97;;
68989;SDS011;56046;47.270;11.368;2023-07-13T01:38:39;4.90;;;2.30;;
68989;SDS011;56046;47.270;11.368;2023-07-13T01:41:05;4.67;;;2.00;;
68989;SDS011;56046;47.270;11.368;2023-07-13T01:43:30;4.57;;;1.93;;
68989;SDS011;56046;47.270;11.368;2023-07-13T01:45:55;3.93;;;1.77;;
68989;SDS011;56046;47.270;11.368;2023-07-13T01:48:20;4.47;;;1.83;;
68989;SDS011;56046;47.270;11.368;2023-07-13T01:50:46;3.83;;;2.00;;
68989;SDS011;56046;47.270;11.368;2023-07-13T01:53:12;5.67;;;1.73;;
68989;SDS011;56046;47.270;11.368;2023-07-13T01:55:37;4.57;;;1.53;;
68989;SDS011;56046;47.270;11.368;2023-07-13T01:58:02;2.70;;;1.50;;
68989;SDS011;56046;47.270;11.368;2023-07-13T02:00:28;3.03;;;1.57;;
68989;SDS011;56046;47.270;11.368;2023-07-13T02:02:53;2.80;;;1.43;;
68989;SDS011;56046;47.270;11.368;2023-07-13T02:05:18;4.57;;;1.50;;
68989;SDS011;56046;47.270;11.368;2023-07-13T02:07:44;3.13;;;1.33;;
68989;SDS011;56046;47.270;11.368;2023-07-13T02:10:09;4.43;;;1.50;;
68989;SDS011;56046;47.270;11.368;2023-07-13T02:12:35;2.42;;;1.30;;
68989;SDS011;56046;47.270;11.368;2023-07-13T02:15:01;2.67;;;1.30;;
68989;SDS011;56046;47.270;11.368;2023-07-13T02:17:26;2.90;;;1.20;;
68989;SDS011;56046;47.270;11.368;2023-07-13T02:19:52;3.90;;;1.80;;
68989;SDS011;56046;47.270;11.368;2023-07-13T02:22:17;4.95;;;1.90;;
68989;SDS011;56046;47.270;11.368;2023-07-13T02:24:43;3.47;;;1.43;;
68989;SDS011;56046;47.270;11.368;2023-07-13T02:27:08;3.53;;;1.70;;
68989;SDS011;56046;47.270;11.368;2023-07-13T02:29:33;2.90;;;1.43;;
68989;SDS011;56046;47.270;11.368;2023-07-13T02:31:58;3.83;;;2.00;;
68989;SDS011;56046;47.270;11.368;2023-07-13T02:34:24;3.30;;;1.40;;
68989;SDS011;56046;47.270;11.368;2023-07-13T02:36:49;3.73;;;1.47;;
68989;SDS011;56046;47.270;11.368;2023-07-13T02:39:14;5.43;;;1.60;;
68989;SDS011;56046;47.270;11.368;2023-07-13T02:41:40;3.33;;;1.33;;
68989;SDS011;56046;47.270;11.368;2023-07-13T02:44:05;3.00;;;1.50;;
68989;SDS011;56046;47.270;11.368;2023-07-13T02:46:31;4.07;;;1.20;;
68989;SDS011;56046;47.270;11.368;2023-07-13T02:48:57;4.28;;;1.40;;
68989;SDS011;56046;47.270;11.368;2023-07-13T02:51:22;4.03;;;1.43;;
68989;SDS011;56046;47.270;11.368;2023-07-13T02:53:47;3.83;;;1.80;;
68989;SDS011;56046;47.270;11.368;2023-07-13T02:56:12;4.30;;;1.80;;
68989;SDS011;56046;47.270;11.368;2023-07-13T02:58:38;4.15;;;1.88;;
68989;SDS011;56046;47.270;11.368;2023-07-13T03:01:07;4.93;;;2.73;;
68989;SDS011;56046;47.270;11.368;2023-07-13T03:03:33;6.05;;;2.50;;
68989;SDS011;56046;47.270;11.368;2023-07-13T03:05:59;7.03;;;2.23;;
68989;SDS011;56046;47.270;11.368;2023-07-13T03:08:25;3.60;;;1.90;;
68989;SDS011;56046;47.270;11.368;2023-07-13T03:11:00;4.00;;;2.00;;
68989;SDS011;56046;47.270;11.368;2023-07-13T03:13:26;4.73;;;1.87;;
68989;SDS011;56046;47.270;11.368;2023-07-13T03:15:51;3.63;;;1.60;;
68989;SDS011;56046;47.270;11.368;2023-07-13T03:18:16;4.20;;;1.40;;
68989;SDS011;56046;47.270;11.368;2023-07-13T03:20:41;3.07;;;1.40;;
68989;SDS011;56046;47.270;11.368;2023-07-13T03:23:07;3.87;;;1.53;;
68989;SDS011;56046;47.270;11.368;2023-07-13T03:25:32;6.27;;;1.50;;
68989;SDS011;56046;47.270;11.368;2023-07-13T03:27:57;3.57;;;1.50;;
68989;SDS011;56046;47.270;11.368;2023-07-13T03:30:23;3.57;;;1.40;;
68989;SDS011;56046;47.270;11.368;2023-07-13T03:32:48;4.27;;;1.50;;
68989;SDS011;56046;47.270;11.368;2023-07-13T03:35:13;3.67;;;1.50;;
68989;SDS011;56046;47.270;11.368;2023-07-13T03:37:39;4.77;;;1.60;;
68989;SDS011;56046;47.270;11.368;2023-07-13T03:40:07;4.27;;;1.70;;
68989;SDS011;56046;47.270;11.368;2023-07-13T03:42:34;4.57;;;1.63;;
68989;SDS011;56046;47.270;11.368;2023-07-13T03:44:59;4.05;;;1.73;;
68989;SDS011;56046;47.270;11.368;2023-07-13T03:47:25;3.70;;;1.60;;
68989;SDS011;56046;47.270;11.368;2023-07-13T03:49:50;4.53;;;2.00;;
68989;SDS011;56046;47.270;11.368;2023-07-13T03:52:15;5.40;;;2.20;;
68989;SDS011;56046;47.270;11.368;2023-07-13T03:54:40;5.50;;;1.97;;
68989;SDS011;56046;47.270;11.368;2023-07-13T03:57:06;4.90;;;2.20;;
68989;SDS011;56046;47.270;11.368;2023-07-13T03:59:31;7.00;;;2.67;;
68989;SDS011;56046;47.270;11.368;2023-07-13T04:01:56;6.30;;;3.40;;
68989;SDS011;56046;47.270;11.368;2023-07-13T04:04:22;7.27;;;3.67;;
68989;SDS011;56046;47.270;11.368;2023-07-13T04:06:47;5.57;;;3.30;;
68989;SDS011;56046;47.270;11.368;2023-07-13T04:09:12;6.77;;;2.80;;
68989;SDS011;56046;47.270;11.368;2023-07-13T04:11:37;5.67;;;2.80;;
68989;SDS011;56046;47.270;11.368;2023-07-13T04:14:03;6.90;;;3.40;;
68989;SDS011;56046;47.270;11.368;2023-07-13T04:16:28;6.37;;;3.50;;
68989;SDS011;56046;47.270;11.368;2023-07-13T04:18:54;5.53;;;3.47;;
68989;SDS011;56046;47.270;11.368;2023-07-13T04:21:21;6.03;;;3.63;;
68989;SDS011;56046;47.270;11.368;2023-07-13T04:23:47;6.78;;;3.38;;
68989;SDS011;56046;47.270;11.368;2023-07-13T04:26:12;8.17;;;3.80;;
68989;SDS011;56046;47.270;11.368;2023-07-13T04:28:37;6.83;;;3.67;;
68989;SDS011;56046;47.270;11.368;2023-07-13T04:31:02;6.47;;;3.07;;
68989;SDS011;56046;47.270;11.368;2023-07-13T04:33:28;5.63;;;2.90;;
68989;SDS011;56046;47.270;11.368;2023-07-13T04:35:54;6.47;;;3.00;;
68989;SDS011;56046;47.270;11.368;2023-07-13T04:38:25;5.78;;;3.00;;
68989;SDS011;56046;47.270;11.368;2023-07-13T04:40:52;5.28;;;2.75;;
68989;SDS011;56046;47.270;11.368;2023-07-13T04:43:18;6.40;;;3.40;;
68989;SDS011;56046;47.270;11.368;2023-07-13T04:45:43;5.50;;;2.67;;
68989;SDS011;56046;47.270;11.368;2023-07-13T04:48:08;7.63;;;3.20;;
68989;SDS011;56046;47.270;11.368;2023-07-13T04:50:36;7.10;;;3.30;;
68989;SDS011;56046;47.270;11.368;2023-07-13T04:53:01;5.18;;;2.58;;
68989;SDS011;56046;47.270;11.368;2023-07-13T04:55:26;4.80;;;2.40;;
68989;SDS011;56046;47.270;11.368;2023-07-13T04:57:55;4.05;;;2.13;;
68989;SDS011;56046;47.270;11.368;2023-07-13T05:00:21;4.33;;;2.27;;
68989;SDS011;56046;47.270;11.368;2023-07-13T05:02:46;5.93;;;3.10;;
68989;SDS011;56046;47.270;11.368;2023-07-13T05:05:11;4.27;;;2.20;;
68989;SDS011;56046;47.270;11.368;2023-07-13T05:07:36;5.13;;;2.30;;
68989;SDS011;56046;47.270;11.368;2023-07-13T05:10:02;4.93;;;2.23;;
68989;SDS011;56046;47.270;11.368;2023-07-13T05:12:29;5.38;;;2.70;;
68989;SDS011;56046;47.270;11.368;2023-07-13T05:14:54;7.50;;;3.20;;
68989;SDS011;56046;47.270;11.368;2023-07-13T05:17:19;5.00;;;3.03;;
68989;SDS011;56046;47.270;11.368;2023-07-13T05:19:45;6.13;;;3.10;;
68989;SDS011;56046;47.270;11.368;2023-07-13T05:22:10;6.57;;;2.93;;
68989;SDS011;56046;47.270;11.368;2023-07-13T05:24:35;6.13;;;3.43;;
68989;SDS011;56046;47.270;11.368;2023-07-13T05:27:00;6.20;;;3.10;;
68989;SDS011;56046;47.270;11.368;2023-07-13T05:29:26;5.30;;;2.80;;
68989;SDS011;56046;47.270;11.368;2023-07-13T05:31:51;6.00;;;3.10;;
68989;SDS011;56046;47.270;11.368;2023-07-13T05:34:16;4.25;;;2.30;;
68989;SDS011;56046;47.270;11.368;2023-07-13T05:36:42;4.97;;;2.47;;
68989;SDS011;56046;47.270;11.368;2023-07-13T05:39:07;5.87;;;2.60;;
68989;SDS011;56046;47.270;11.368;2023-07-13T05:41:33;4.90;;;3.03;;
68989;SDS011;56046;47.270;11.368;2023-07-13T05:43:58;6.13;;;2.80;;
68989;SDS011;56046;47.270;11.368;2023-07-13T05:46:23;5.17;;;2.90;;
68989;SDS011;56046;47.270;11.368;2023-07-13T05:48:48;6.87;;;2.53;;
68989;SDS011;56046;47.270;11.368;2023-07-13T05:51:14;6.20;;;3.07;;
68989;SDS011;56046;47.270;11.368;2023-07-13T05:53:39;5.33;;;2.90;;
68989;SDS011;56046;47.270;11.368;2023-07-13T05:56:04;5.13;;;3.07;;
68989;SDS011;56046;47.270;11.368;2023-07-13T05:58:29;7.63;;;2.50;;
68989;SDS011;56046;47.270;11.368;2023-07-13T06:01:02;4.90;;;2.90;;
68989;SDS011;56046;47.270;11.368;2023-07-13T06:03:28;6.32;;;2.40;;
68989;SDS011;56046;47.270;11.368;2023-07-13T06:05:53;5.43;;;2.73;;
68989;SDS011;56046;47.270;11.368;2023-07-13T06:08:18;4.20;;;2.57;;
68989;SDS011;56046;47.270;11.368;2023-07-13T06:10:44;6.20;;;2.93;;
68989;SDS011;56046;47.270;11.368;2023-07-13T06:13:09;5.00;;;2.77;;
68989;SDS011;56046;47.270;11.368;2023-07-13T06:15:34;6.37;;;3.17;;
68989;SDS011;56046;47.270;11.368;2023-07-13T06:17:59;6.90;;;3.00;;
68989;SDS011;56046;47.270;11.368;2023-07-13T06:20:24;5.90;;;2.70;;
68989;SDS011;56046;47.270;11.368;2023-07-13T06:22:50;4.70;;;2.77;;
68989;SDS011;56046;47.270;11.368;2023-07-13T06:25:16;7.00;;;3.13;;
68989;SDS011;56046;47.270;11.368;2023-07-13T06:27:42;6.80;;;3.00;;
68989;SDS011;56046;47.270;11.368;2023-07-13T06:30:07;4.20;;;2.67;;
68989;SDS011;56046;47.270;11.368;2023-07-13T06:32:33;4.80;;;2.73;;
68989;SDS011;56046;47.270;11.368;2023-07-13T06:34:58;6.90;;;2.97;;
68989;SDS011;56046;47.270;11.368;2023-07-13T06:37:23;4.97;;;3.00;;
68989;SDS011;56046;47.270;11.368;2023-07-13T06:39:48;5.43;;;2.40;;
68989;SDS011;56046;47.270;11.368;2023-07-13T06:42:15;6.13;;;2.90;;
68989;SDS011;56046;47.270;11.368;2023-07-13T06:44:40;4.85;;;2.75;;
68989;SDS011;56046;47.270;11.368;2023-07-13T06:47:06;4.63;;;2.20;;
68989;SDS011;56046;47.270;11.368;2023-07-13T06:49:31;4.80;;;2.40;;
68989;SDS011;56046;47.270;11.368;2023-07-13T06:51:56;4.17;;;2.40;;
68989;SDS011;56046;47.270;11.368;2023-07-13T06:54:21;4.17;;;1.90;;
68989;SDS011;56046;47.270;11.368;2023-07-13T06:56:47;5.77;;;2.30;;
68989;SDS011;56046;47.270;11.368;2023-07-13T06:59:12;4.40;;;2.57;;
68989;SDS011;56046;47.270;11.368;2023-07-13T07:01:37;4.03;;;2.13;;
68989;SDS011;56046;47.270;11.368;2023-07-13T07:04:03;3.83;;;1.80;;
68989;SDS011;56046;47.270;11.368;2023-07-13T07:06:28;4.00;;;2.27;;
68989;SDS011;56046;47.270;11.368;2023-07-13T07:08:53;4.07;;;2.10;;
68989;SDS011;56046;47.270;11.368;2023-07-13T07:11:23;4.00;;;2.17;;
68989;SDS011;56046;47.270;11.368;2023-07-13T07:13:49;6.17;;;2.73;;
68989;SDS011;56046;47.270;11.368;2023-07-13T07:16:14;5.13;;;2.33;;
68989;SDS011;56046;47.270;11.368;2023-07-13T07:18:40;6.43;;;3.33;;
68989;SDS011;56046;47.270;11.368;2023-07-13T07:21:05;7.57;;;3.13;;
68989;SDS011;56046;47.270;11.368;2023-07-13T07:23:30;6.28;;;2.42;;
68989;SDS011;56046;47.270;11.368;2023-07-13T07:25:56;7.47;;;2.47;;
68989;SDS011;56046;47.270;11.368;2023-07-13T07:28:21;6.53;;;2.20;;
68989;SDS011;56046;47.270;11.368;2023-07-13T07:30:47;4.40;;;2.20;;
68989;SDS011;56046;47.270;11.368;2023-07-13T07:33:13;4.50;;;1.95;;
68989;SDS011;56046;47.270;11.368;2023-07-13T07:35:38;5.17;;;2.50;;
68989;SDS011;56046;47.270;11.368;2023-07-13T07:38:04;3.55;;;2.17;;
68989;SDS011;56046;47.270;11.368;2023-07-13T07:40:29;4.00;;;2.00;;
68989;SDS011;56046;47.270;11.368;2023-07-13T07:42:54;2.97;;;1.90;;
68989;SDS011;56046;47.270;11.368;2023-07-13T07:45:20;4.13;;;2.03;;
68989;SDS011;56046;47.270;11.368;2023-07-13T07:47:45;5.23;;;2.00;;
68989;SDS011;56046;47.270;11.368;2023-07-13T07:50:10;4.43;;;1.83;;
68989;SDS011;56046;47.270;11.368;2023-07-13T07:52:36;3.80;;;1.80;;
68989;SDS011;56046;47.270;11.368;2023-07-13T07:55:01;4.37;;;1.60;;
68989;SDS011;56046;47.270;11.368;2023-07-13T07:57:26;3.47;;;1.60;;
68989;SDS011;56046;47.270;11.368;2023-07-13T07:59:51;4.40;;;1.70;;
68989;SDS011;56046;47.270;11.368;2023-07-13T08:02:17;4.90;;;1.40;;
68989;SDS011;56046;47.270;11.368;2023-07-13T08:04:42;3.70;;;1.50;;
68989;SDS011;56046;47.270;11.368;2023-07-13T08:07:08;3.85;;;1.80;;
68989;SDS011;56046;47.270;11.368;2023-07-13T08:09:34;5.27;;;2.50;;
68989;SDS011;56046;47.270;11.368;2023-07-13T08:11:59;3.17;;;2.03;;
68989;SDS011;56046;47.270;11.368;2023-07-13T08:14:24;4.55;;;1.77;;
68989;SDS011;56046;47.270;11.368;2023-07-13T08:16:50;3.70;;;2.10;;
68989;SDS011;56046;47.270;11.368;2023-07-13T08:19:15;2.70;;;2.00;;
68989;SDS011;56046;47.270;11.368;2023-07-13T08:21:40;3.70;;;1.90;;
68989;SDS011;56046;47.270;11.368;2023-07-13T08:24:07;3.65;;;2.17;;
68989;SDS011;56046;47.270;11.368;2023-07-13T08:26:32;3.03;;;1.77;;
68989;SDS011;56046;47.270;11.368;2023-07-13T08:28:58;3.00;;;2.00;;
68989;SDS011;56046;47.270;11.368;2023-07-13T08:31:23;3.43;;;1.80;;
68989;SDS011;56046;47.270;11.368;2023-07-13T08:33:48;2.70;;;2.10;;
68989;SDS011;56046;47.270;11.368;2023-07-13T08:36:13;2.73;;;2.00;;
68989;SDS011;56046;47.270;11.368;2023-07-13T08:38:39;5.87;;;2.10;;
68989;SDS011;56046;47.270;11.368;2023-07-13T08:41:11;3.33;;;2.27;;
68989;SDS011;56046;47.270;11.368;2023-07-13T08:43:37;5.45;;;1.90;;
68989;SDS011;56046;47.270;11.368;2023-07-13T08:46:11;3.57;;;1.93;;
68989;SDS011;56046;47.270;11.368;2023-07-13T08:48:48;3.47;;;2.00;;
68989;SDS011;56046;47.270;11.368;2023-07-13T08:51:36;4.05;;;1.77;;
68989;SDS011;56046;47.270;11.368;2023-07-13T08:54:05;3.77;;;2.10;;
68989;SDS011;56046;47.270;11.368;2023-07-13T08:56:33;4.90;;;1.75;;
68989;SDS011;56046;47.270;11.368;2023-07-13T08:59:09;5.20;;;2.10;;
68989;SDS011;56046;47.270;11.368;2023-07-13T09:04:23;4.75;;;1.90;;
68989;SDS011;56046;47.270;11.368;2023-07-13T09:11:49;2.87;;;1.80;;
68989;SDS011;56046;47.270;11.368;2023-07-13T09:17:00;4.38;;;2.22;;
68989;SDS011;56046;47.270;11.368;2023-07-13T09:19:28;4.60;;;2.28;;
68989;SDS011;56046;47.270;11.368;2023-07-13T09:21:54;4.30;;;2.30;;
68989;SDS011;56046;47.270;11.368;2023-07-13T09:27:15;4.43;;;1.50;;
68989;SDS011;56046;47.270;11.368;2023-07-13T09:29:45;3.55;;;1.95;;
68989;SDS011;56046;47.270;11.368;2023-07-13T09:32:12;4.32;;;1.67;;
68989;SDS011;56046;47.270;11.368;2023-07-13T09:34:39;4.55;;;1.90;;
68989;SDS011;56046;47.270;11.368;2023-07-13T09:37:05;2.40;;;1.60;;
68989;SDS011;56046;47.270;11.368;2023-07-13T09:39:35;2.73;;;1.87;;
68989;SDS011;56046;47.270;11.368;2023-07-13T09:44:37;3.50;;;1.45;;
68989;SDS011;56046;47.270;11.368;2023-07-13T09:47:03;3.63;;;1.60;;
68989;SDS011;56046;47.270;11.368;2023-07-13T09:49:29;3.57;;;1.97;;
68989;SDS011;56046;47.270;11.368;2023-07-13T09:52:05;3.80;;;1.98;;
68989;SDS011;56046;47.270;11.368;2023-07-13T09:54:32;3.42;;;1.23;;
68989;SDS011;56046;47.270;11.368;2023-07-13T09:56:59;3.65;;;2.38;;
68989;SDS011;56046;47.270;11.368;2023-07-13T09:59:28;4.60;;;2.10;;
68989;SDS011;56046;47.270;11.368;2023-07-13T10:01:54;2.90;;;1.90;;
68989;SDS011;56046;47.270;11.368;2023-07-13T10:04:27;3.53;;;1.95;;
68989;SDS011;56046;47.270;11.368;2023-07-13T10:07:04;5.37;;;2.80;;
68989;SDS011;56046;47.270;11.368;2023-07-13T10:09:29;4.75;;;2.90;;
68989;SDS011;56046;47.270;11.368;2023-07-13T10:11:54;4.50;;;3.30;;
68989;SDS011;56046;47.270;11.368;2023-07-13T10:14:20;6.60;;;3.70;;
68989;SDS011;56046;47.270;11.368;2023-07-13T10:16:48;4.40;;;2.70;;
68989;SDS011;56046;47.270;11.368;2023-07-13T10:19:21;5.50;;;3.30;;
68989;SDS011;56046;47.270;11.368;2023-07-13T10:24:27;5.20;;;2.78;;
68989;SDS011;56046;47.270;11.368;2023-07-13T10:29:43;4.40;;;2.42;;
68989;SDS011;56046;47.270;11.368;2023-07-13T10:32:09;4.55;;;2.47;;
68989;SDS011;56046;47.270;11.368;2023-07-13T10:34:35;4.93;;;3.25;;
68989;SDS011;56046;47.270;11.368;2023-07-13T10:37:00;4.20;;;3.07;;
68989;SDS011;56046;47.270;11.368;2023-07-13T10:39:27;6.22;;;3.00;;
68989;SDS011;56046;47.270;11.368;2023-07-13T10:41:57;4.85;;;2.97;;
68989;SDS011;56046;47.270;11.368;2023-07-13T10:44:24;5.50;;;3.20;;
68989;SDS011;56046;47.270;11.368;2023-07-13T10:46:52;4.95;;;3.13;;
68989;SDS011;56046;47.270;11.368;2023-07-13T10:49:18;4.15;;;2.78;;
68989;SDS011;56046;47.270;11.368;2023-07-13T10:51:44;5.43;;;3.17;;
68989;SDS011;56046;47.270;11.368;2023-07-13T10:56:44;4.68;;;2.30;;
68989;SDS011;56046;47.270;11.368;2023-07-13T11:01:40;4.40;;;1.52;;
68989;SDS011;56046;47.270;11.368;2023-07-13T11:04:12;4.00;;;1.92;;
68989;SDS011;56046;47.270;11.368;2023-07-13T11:06:40;4.40;;;2.28;;
68989;SDS011;56046;47.270;11.368;2023-07-13T11:11:46;4.07;;;2.33;;
68989;SDS011;56046;47.270;11.368;2023-07-13T11:14:32;3.67;;;1.92;;
68989;SDS011;56046;47.270;11.368;2023-07-13T11:17:09;4.17;;;2.60;;
68989;SDS011;56046;47.270;11.368;2023-07-13T11:19:45;4.15;;;2.67;;
68989;SDS011;56046;47.270;11.368;2023-07-13T11:22:16;4.88;;;2.40;;
68989;SDS011;56046;47.270;11.368;2023-07-13T11:27:24;3.95;;;2.42;;
68989;SDS011;56046;47.270;11.368;2023-07-13T11:30:06;4.50;;;2.37;;
68989;SDS011;56046;47.270;11.368;2023-07-13T11:32:32;4.35;;;2.30;;
68989;SDS011;56046;47.270;11.368;2023-07-13T11:34:57;3.83;;;1.87;;
68989;SDS011;56046;47.270;11.368;2023-07-13T11:37:22;4.13;;;2.67;;
68989;SDS011;56046;47.270;11.368;2023-07-13T11:39:48;5.50;;;2.00;;
68989;SDS011;56046;47.270;11.368;2023-07-13T11:42:17;4.13;;;2.03;;
68989;SDS011;56046;47.270;11.368;2023-07-13T11:44:43;2.63;;;1.70;;
68989;SDS011;56046;47.270;11.368;2023-07-13T11:47:19;2.40;;;1.60;;
68989;SDS011;56046;47.270;11.368;2023-07-13T11:49:54;2.08;;;1.35;;
68989;SDS011;56046;47.270;11.368;2023-07-13T11:52:34;5.57;;;1.52;;
68989;SDS011;56046;47.270;11.368;2023-07-13T11:55:03;2.38;;;1.52;;
68989;SDS011;56046;47.270;11.368;2023-07-13T11:57:30;3.70;;;1.98;;
68989;SDS011;56046;47.270;11.368;2023-07-13T11:59:59;2.70;;;1.53;;
68989;SDS011;56046;47.270;11.368;2023-07-13T12:02:32;2.17;;;1.40;;
68989;SDS011;56046;47.270;11.368;2023-07-13T12:04:59;2.55;;;1.20;;
68989;SDS011;56046;47.270;11.368;2023-07-13T12:07:25;2.78;;;1.55;;
68989;SDS011;56046;47.270;11.368;2023-07-13T12:09:53;3.17;;;1.58;;
68989;SDS011;56046;47.270;11.368;2023-07-13T12:12:21;6.63;;;1.87;;
68989;SDS011;56046;47.270;11.368;2023-07-13T12:14:46;4.67;;;1.70;;
68989;SDS011;56046;47.270;11.368;2023-07-13T12:17:21;4.40;;;2.07;;
68989;SDS011;56046;47.270;11.368;2023-07-13T12:19:47;4.27;;;1.50;;
68989;SDS011;56046;47.270;11.368;2023-07-13T12:22:13;3.38;;;1.27;;
68989;SDS011;56046;47.270;11.368;2023-07-13T12:24:40;3.67;;;1.60;;
68989;SDS011;56046;47.270;11.368;2023-07-13T12:27:05;3.42;;;1.17;;
68989;SDS011;56046;47.270;11.368;2023-07-13T12:29:31;2.70;;;1.17;;
68989;SDS011;56046;47.270;11.368;2023-07-13T12:31:57;2.08;;;1.27;;
68989;SDS011;56046;47.270;11.368;2023-07-13T12:34:23;1.70;;;1.00;;
68989;SDS011;56046;47.270;11.368;2023-07-13T12:36:55;2.25;;;1.00;;
68989;SDS011;56046;47.270;11.368;2023-07-13T12:41:53;5.88;;;0.90;;
68989;SDS011;56046;47.270;11.368;2023-07-13T12:44:21;2.07;;;1.10;;
68989;SDS011;56046;47.270;11.368;2023-07-13T12:47:09;1.70;;;0.85;;
68989;SDS011;56046;47.270;11.368;2023-07-13T12:49:39;2.63;;;1.20;;
68989;SDS011;56046;47.270;11.368;2023-07-13T12:52:10;1.92;;;0.80;;
68989;SDS011;56046;47.270;11.368;2023-07-13T12:54:38;2.53;;;0.90;;
68989;SDS011;56046;47.270;11.368;2023-07-13T12:57:04;2.23;;;1.00;;
68989;SDS011;56046;47.270;11.368;2023-07-13T12:59:32;2.15;;;1.15;;
68989;SDS011;56046;47.270;11.368;2023-07-13T13:01:58;3.28;;;1.30;;
68989;SDS011;56046;47.270;11.368;2023-07-13T13:04:24;2.58;;;1.30;;
68989;SDS011;56046;47.270;11.368;2023-07-13T13:07:00;1.70;;;1.10;;
68989;SDS011;56046;47.270;11.368;2023-07-13T13:09:26;2.45;;;0.90;;
68989;SDS011;56046;47.270;11.368;2023-07-13T13:11:51;1.97;;;1.10;;
68989;SDS011;56046;47.270;11.368;2023-07-13T13:14:16;2.80;;;1.20;;
68989;SDS011;56046;47.270;11.368;2023-07-13T13:16:45;2.42;;;1.15;;
68989;SDS011;56046;47.270;11.368;2023-07-13T13:19:13;3.50;;;1.45;;
68989;SDS011;56046;47.270;11.368;2023-07-13T13:21:38;3.73;;;1.13;;
68989;SDS011;56046;47.270;11.368;2023-07-13T13:24:09;3.42;;;1.55;;
68989;SDS011;56046;47.270;11.368;2023-07-13T13:26:35;3.83;;;1.80;;
68989;SDS011;56046;47.270;11.368;2023-07-13T13:29:00;4.20;;;1.30;;
68989;SDS011;56046;47.270;11.368;2023-07-13T13:31:25;2.57;;;1.37;;
68989;SDS011;56046;47.270;11.368;2023-07-13T13:33:51;3.30;;;1.70;;
68989;SDS011;56046;47.270;11.368;2023-07-13T13:36:19;4.63;;;1.60;;
68989;SDS011;56046;47.270;11.368;2023-07-13T13:38:45;3.90;;;1.50;;
68989;SDS011;56046;47.270;11.368;2023-07-13T13:41:12;2.33;;;1.40;;
68989;SDS011;56046;47.270;11.368;2023-07-13T13:43:38;3.60;;;1.73;;
68989;SDS011;56046;47.270;11.368;2023-07-13T13:46:05;3.67;;;1.70;;
68989;SDS011;56046;47.270;11.368;2023-07-13T13:48:36;2.65;;;1.60;;
68989;SDS011;56046;47.270;11.368;2023-07-13T13:51:05;2.43;;;1.60;;
68989;SDS011;56046;47.270;11.368;2023-07-13T13:53:37;4.90;;;1.55;;
68989;SDS011;56046;47.270;11.368;2023-07-13T13:56:03;4.47;;;1.70;;
68989;SDS011;56046;47.270;11.368;2023-07-13T13:58:28;2.97;;;1.70;;
68989;SDS011;56046;47.270;11.368;2023-07-13T14:00:54;3.88;;;1.20;;
68989;SDS011;56046;47.270;11.368;2023-07-13T14:03:20;4.13;;;1.77;;
68989;SDS011;56046;47.270;11.368;2023-07-13T14:05:47;3.23;;;1.70;;
68989;SDS011;56046;47.270;11.368;2023-07-13T14:08:17;2.88;;;1.90;;
68989;SDS011;56046;47.270;11.368;2023-07-13T14:10:43;3.53;;;2.10;;
68989;SDS011;56046;47.270;11.368;2023-07-13T14:13:19;2.10;;;1.30;;
68989;SDS011;56046;47.270;11.368;2023-07-13T14:15:45;2.65;;;1.75;;
68989;SDS011;56046;47.270;11.368;2023-07-13T14:18:10;4.60;;;1.67;;
68989;SDS011;56046;47.270;11.368;2023-07-13T14:20:36;2.80;;;1.80;;
68989;SDS011;56046;47.270;11.368;2023-07-13T14:23:02;4.07;;;1.80;;
68989;SDS011;56046;47.270;11.368;2023-07-13T14:25:27;2.77;;;1.77;;
68989;SDS011;56046;47.270;11.368;2023-07-13T14:27:53;3.93;;;2.00;;
68989;SDS011;56046;47.270;11.368;2023-07-13T14:30:21;4.35;;;1.65;;
68989;SDS011;56046;47.270;11.368;2023-07-13T14:32:47;3.53;;;1.60;;
68989;SDS011;56046;47.270;11.368;2023-07-13T14:35:14;4.05;;;1.80;;
68989;SDS011;56046;47.270;11.368;2023-07-13T14:37:40;4.22;;;1.67;;
68989;SDS011;56046;47.270;11.368;2023-07-13T14:40:16;4.97;;;1.80;;
68989;SDS011;56046;47.270;11.368;2023-07-13T14:42:41;3.88;;;2.00;;
68989;SDS011;56046;47.270;11.368;2023-07-13T14:45:17;3.83;;;1.55;;
68989;SDS011;56046;47.270;11.368;2023-07-13T14:47:43;2.90;;;1.65;;
68989;SDS011;56046;47.270;11.368;2023-07-13T14:50:12;2.60;;;1.50;;
68989;SDS011;56046;47.270;11.368;2023-07-13T14:52:38;2.35;;;1.58;;
68989;SDS011;56046;47.270;11.368;2023-07-13T14:55:04;2.30;;;1.23;;
68989;SDS011;56046;47.270;11.368;2023-07-13T14:57:30;2.78;;;1.52;;
68989;SDS011;56046;47.270;11.368;2023-07-13T14:59:55;3.17;;;1.40;;
68989;SDS011;56046;47.270;11.368;2023-07-13T15:02:26;3.70;;;2.00;;
68989;SDS011;56046;47.270;11.368;2023-07-13T15:04:52;3.92;;;1.98;;
68989;SDS011;56046;47.270;11.368;2023-07-13T15:07:19;3.38;;;1.65;;
68989;SDS011;56046;47.270;11.368;2023-07-13T15:09:46;3.25;;;1.80;;